Nagaleader — VRDD5 — position and weather

sailwx.info

Track history (hours):
 
Tides and Currents Weather Stations Pressure Air Temp Water Temp Dewpoint Dewpoint Depression Visibility Wind Speed Wind Dir Waves Ship Positions

Nagaleader

Last reported at 2016-Apr-28 17:07 UTC. Time now 2016-Apr-29 08:13 UTC.
Position N 26°08' E 119°35'.

Length 113 m; draft 7 m.

Type: Cargo ship. MMSI: 477926700.

Date/timePositionNaut miles runAvg speedWind from/ knotsBaromVisibWave heightAir tempDewpointWater temp
2016-Apr-28 17:07N 26°08' E 119°35'4 6.7
2016-Apr-28 16:33N 26°06' E 119°32'6 5.9
2016-Apr-28 15:32N 26°00' E 119°29'0 0.0
2016-Apr-28 14:25N 26°00' E 119°29'0 0.0
2016-Apr-28 13:31N 26°00' E 119°29'0 0.0
2016-Apr-28 12:31N 26°00' E 119°29'0 0.0
2016-Apr-28 11:30N 26°00' E 119°29'0 0.0
2016-Apr-28 10:30N 26°00' E 119°29'0 0.0
2016-Apr-28 09:06N 26°00' E 119°29'0 0.0
2016-Apr-28 08:24N 26°00' E 119°29'0 0.0
2016-Apr-28 07:30N 26°00' E 119°29'0 0.0
2016-Apr-28 06:18N 26°00' E 119°29'0 0.0
2016-Apr-28 05:30N 26°00' E 119°29'0 0.0
2016-Apr-28 03:30N 26°00' E 119°29'0 0.0
2016-Apr-28 02:12N 26°00' E 119°29'0 0.0
2016-Apr-28 01:24N 26°00' E 119°29'0 0.0
2016-Apr-28 00:30N 26°00' E 119°29'0 0.0
2016-Apr-27 23:32N 26°00' E 119°29'7 7.2
2016-Apr-27 22:33N 26°06' E 119°33'3 0.1
2016-Apr-26 16:29N 26°08' E 119°35'8 9.0
2016-Apr-26 15:33N 26°01' E 119°30'1 1.1
2016-Apr-26 14:31N 26°00' E 119°29'0 0.0
2016-Apr-26 12:25N 26°00' E 119°29'0 0.0
2016-Apr-26 11:07N 26°00' E 119°29'0 0.0
2016-Apr-26 10:31N 26°00' E 119°29'0 0.0
2016-Apr-26 06:07N 26°00' E 119°29'1 0.2
2016-Apr-26 03:33N 26°01' E 119°29'19911.7
2016-Apr-25 10:34N 22°45' E 120°08'1111.3
2016-Apr-25 09:34N 22°37' E 120°16'4 0.4
2016-Apr-24 23:25N 22°33' E 120°17'8 9.7
2016-Apr-24 22:33N 22°38' E 120°10'21110.5
2016-Apr-24 02:33N 26°06' E 119°32'6 6.0
2016-Apr-24 01:33N 26°00' E 119°29'0 0.2
2016-Apr-24 00:32N 26°00' E 119°29'0 0.0
2016-Apr-23 23:32N 26°00' E 119°29'0 0.0
2016-Apr-23 22:32N 26°00' E 119°29'0 0.0
2016-Apr-23 21:32N 26°00' E 119°29'0 0.0
2016-Apr-23 20:20N 26°00' E 119°29'0 0.0
2016-Apr-23 19:32N 26°00' E 119°29'0 0.0
2016-Apr-23 18:32N 26°00' E 119°29'0 0.0
2016-Apr-23 17:14N 26°00' E 119°29'0 0.0
2016-Apr-23 16:08N 26°00' E 119°29'0 0.0
2016-Apr-23 15:20N 26°00' E 119°29'0 0.0
2016-Apr-23 14:20N 26°00' E 119°29'0 0.0
2016-Apr-23 13:32N 26°00' E 119°29'0 0.0
2016-Apr-23 12:26N 26°00' E 119°29'0 0.0
2016-Apr-23 11:32N 26°00' E 119°29'0 0.0
2016-Apr-23 10:32N 26°00' E 119°29'0 0.0
2016-Apr-23 09:26N 26°00' E 119°29'0 0.0
2016-Apr-23 08:32N 26°00' E 119°29'0 0.0
2016-Apr-23 06:19N 26°00' E 119°29'0 0.0
2016-Apr-23 05:31N 26°00' E 119°29'3 3.5
2016-Apr-23 04:33N 26°03' E 119°31'19911.5
2016-Apr-22 11:14N 22°47' E 120°06'914.0
2016-Apr-22 10:34N 22°38' E 120°11'9 9.0
2016-Apr-22 09:31N 22°33' E 120°19'1 0.1
2016-Apr-21 22:32N 22°33' E 120°18'9 8.9
2016-Apr-21 21:33N 22°38' E 120°10'13110.6
2016-Apr-21 09:16N 24°48' E 119°57'810.5
2016-Apr-21 08:33N 24°55' E 119°57'7510.2
2016-Apr-21 01:08N 26°08' E 119°35'6 9.5
2016-Apr-21 00:32N 26°04' E 119°31'4 3.3
2016-Apr-20 23:24N 26°00' E 119°29'0 0.0
2016-Apr-20 19:30N 26°00' E 119°29'0 0.0
2016-Apr-20 18:06N 26°00' E 119°29'0 0.0
2016-Apr-20 17:24N 26°00' E 119°29'0 0.0
2016-Apr-20 16:24N 26°00' E 119°29'0 0.0
2016-Apr-20 15:24N 26°00' E 119°29'0 0.0
2016-Apr-20 14:30N 26°00' E 119°29'0 0.0
2016-Apr-20 13:30N 26°00' E 119°29'0 0.0
2016-Apr-20 12:18N 26°00' E 119°29'0 0.0
2016-Apr-20 11:30N 26°00' E 119°29'0 0.0
2016-Apr-20 10:30N 26°00' E 119°29'0 0.0
2016-Apr-20 08:30N 26°00' E 119°29'0 0.0
2016-Apr-20 06:30N 26°00' E 119°29'0 0.0
2016-Apr-20 05:30N 26°00' E 119°29'0 0.0
2016-Apr-20 04:24N 26°00' E 119°29'0 0.0
2016-Apr-20 03:30N 26°00' E 119°29'0 0.0
2016-Apr-20 02:30N 26°00' E 119°29'0 0.0
2016-Apr-19 23:24N 26°00' E 119°29'0 0.0
2016-Apr-19 22:24N 26°00' E 119°29'0 0.0
2016-Apr-19 18:24N 26°00' E 119°29'0 0.0
2016-Apr-19 16:18N 26°00' E 119°29'0 0.0
2016-Apr-19 15:30N 26°00' E 119°29'5 3.7
2016-Apr-19 14:06N 26°05' E 119°32'0 0.0
2016-Apr-19 13:30N 26°05' E 119°32'0 0.0
2016-Apr-19 12:30N 26°05' E 119°32'0 0.0
2016-Apr-19 11:30N 26°05' E 119°32'0 0.0
2016-Apr-19 10:24N 26°05' E 119°32'0 0.1
2016-Apr-19 09:24N 26°05' E 119°32'  
Track history (hours):
 
Tides and Currents Weather Stations Pressure Air Temp Water Temp Dewpoint Dewpoint Depression Visibility Wind Speed Wind Dir Waves Ship Positions

Nagaleader

Last reported at 2016-Apr-28 17:07 UTC. Time now 2016-Apr-29 08:13 UTC.
Position N 26°08' E 119°35'.

Length 113 m; draft 7 m.

Type: Cargo ship. MMSI: 477926700.

Date/timePositionNaut miles runAvg speedWind from/ knotsBaromVisibWave heightAir tempDewpointWater temp
2016-Apr-28 17:07N 26°08' E 119°35'4 6.7
2016-Apr-28 16:33N 26°06' E 119°32'6 5.9
2016-Apr-28 15:32N 26°00' E 119°29'0 0.0
2016-Apr-28 14:25N 26°00' E 119°29'0 0.0
2016-Apr-28 13:31N 26°00' E 119°29'0 0.0
2016-Apr-28 12:31N 26°00' E 119°29'0 0.0
2016-Apr-28 11:30N 26°00' E 119°29'0 0.0
2016-Apr-28 10:30N 26°00' E 119°29'0 0.0
2016-Apr-28 09:06N 26°00' E 119°29'0 0.0
2016-Apr-28 08:24N 26°00' E 119°29'0 0.0
2016-Apr-28 07:30N 26°00' E 119°29'0 0.0
2016-Apr-28 06:18N 26°00' E 119°29'0 0.0
2016-Apr-28 05:30N 26°00' E 119°29'0 0.0
2016-Apr-28 03:30N 26°00' E 119°29'0 0.0
2016-Apr-28 02:12N 26°00' E 119°29'0 0.0
2016-Apr-28 01:24N 26°00' E 119°29'0 0.0
2016-Apr-28 00:30N 26°00' E 119°29'0 0.0
2016-Apr-27 23:32N 26°00' E 119°29'7 7.2
2016-Apr-27 22:33N 26°06' E 119°33'3 0.1
2016-Apr-26 16:29N 26°08' E 119°35'8 9.0
2016-Apr-26 15:33N 26°01' E 119°30'1 1.1
2016-Apr-26 14:31N 26°00' E 119°29'0 0.0
2016-Apr-26 12:25N 26°00' E 119°29'0 0.0
2016-Apr-26 11:07N 26°00' E 119°29'0 0.0
2016-Apr-26 10:31N 26°00' E 119°29'0 0.0
2016-Apr-26 06:07N 26°00' E 119°29'1 0.2
2016-Apr-26 03:33N 26°01' E 119°29'19911.7
2016-Apr-25 10:34N 22°45' E 120°08'1111.3
2016-Apr-25 09:34N 22°37' E 120°16'4 0.4
2016-Apr-24 23:25N 22°33' E 120°17'8 9.7
2016-Apr-24 22:33N 22°38' E 120°10'21110.5
2016-Apr-24 02:33N 26°06' E 119°32'6 6.0
2016-Apr-24 01:33N 26°00' E 119°29'0 0.2
2016-Apr-24 00:32N 26°00' E 119°29'0 0.0
2016-Apr-23 23:32N 26°00' E 119°29'0 0.0
2016-Apr-23 22:32N 26°00' E 119°29'0 0.0
2016-Apr-23 21:32N 26°00' E 119°29'0 0.0
2016-Apr-23 20:20N 26°00' E 119°29'0 0.0
2016-Apr-23 19:32N 26°00' E 119°29'0 0.0
2016-Apr-23 18:32N 26°00' E 119°29'0 0.0
2016-Apr-23 17:14N 26°00' E 119°29'0 0.0
2016-Apr-23 16:08N 26°00' E 119°29'0 0.0
2016-Apr-23 15:20N 26°00' E 119°29'0 0.0
2016-Apr-23 14:20N 26°00' E 119°29'0 0.0
2016-Apr-23 13:32N 26°00' E 119°29'0 0.0
2016-Apr-23 12:26N 26°00' E 119°29'0 0.0
2016-Apr-23 11:32N 26°00' E 119°29'0 0.0
2016-Apr-23 10:32N 26°00' E 119°29'0 0.0
2016-Apr-23 09:26N 26°00' E 119°29'0 0.0
2016-Apr-23 08:32N 26°00' E 119°29'0 0.0
2016-Apr-23 06:19N 26°00' E 119°29'0 0.0
2016-Apr-23 05:31N 26°00' E 119°29'3 3.5
2016-Apr-23 04:33N 26°03' E 119°31'19911.5
2016-Apr-22 11:14N 22°47' E 120°06'914.0
2016-Apr-22 10:34N 22°38' E 120°11'9 9.0
2016-Apr-22 09:31N 22°33' E 120°19'1 0.1
2016-Apr-21 22:32N 22°33' E 120°18'9 8.9
2016-Apr-21 21:33N 22°38' E 120°10'13110.6
2016-Apr-21 09:16N 24°48' E 119°57'810.5
2016-Apr-21 08:33N 24°55' E 119°57'7510.2
2016-Apr-21 01:08N 26°08' E 119°35'6 9.5
2016-Apr-21 00:32N 26°04' E 119°31'4 3.3
2016-Apr-20 23:24N 26°00' E 119°29'0 0.0
2016-Apr-20 19:30N 26°00' E 119°29'0 0.0
2016-Apr-20 18:06N 26°00' E 119°29'0 0.0
2016-Apr-20 17:24N 26°00' E 119°29'0 0.0
2016-Apr-20 16:24N 26°00' E 119°29'0 0.0
2016-Apr-20 15:24N 26°00' E 119°29'0 0.0
2016-Apr-20 14:30N 26°00' E 119°29'0 0.0
2016-Apr-20 13:30N 26°00' E 119°29'0 0.0
2016-Apr-20 12:18N 26°00' E 119°29'0 0.0
2016-Apr-20 11:30N 26°00' E 119°29'0 0.0
2016-Apr-20 10:30N 26°00' E 119°29'0 0.0
2016-Apr-20 08:30N 26°00' E 119°29'0 0.0
2016-Apr-20 06:30N 26°00' E 119°29'0 0.0
2016-Apr-20 05:30N 26°00' E 119°29'0 0.0
2016-Apr-20 04:24N 26°00' E 119°29'0 0.0
2016-Apr-20 03:30N 26°00' E 119°29'0 0.0
2016-Apr-20 02:30N 26°00' E 119°29'0 0.0
2016-Apr-19 23:24N 26°00' E 119°29'0 0.0
2016-Apr-19 22:24N 26°00' E 119°29'0 0.0
2016-Apr-19 18:24N 26°00' E 119°29'0 0.0
2016-Apr-19 16:18N 26°00' E 119°29'0 0.0
2016-Apr-19 15:30N 26°00' E 119°29'5 3.7
2016-Apr-19 14:06N 26°05' E 119°32'0 0.0
2016-Apr-19 13:30N 26°05' E 119°32'0 0.0
2016-Apr-19 12:30N 26°05' E 119°32'0 0.0
2016-Apr-19 11:30N 26°05' E 119°32'0 0.0
2016-Apr-19 10:24N 26°05' E 119°32'0 0.1
2016-Apr-19 09:24N 26°05' E 119°32'  

Dump ship's entire track history